createdAt,value
2023-11-12T00:02:24.960Z,4.76
2023-11-12T00:04:51.417Z,4.70
2023-11-12T00:07:17.873Z,4.80
2023-11-12T00:09:45.810Z,4.87
2023-11-12T00:12:12.889Z,4.79
2023-11-12T00:14:41.629Z,4.77
2023-11-12T00:17:08.590Z,4.84
2023-11-12T00:19:35.140Z,4.82
2023-11-12T00:22:01.542Z,4.70
2023-11-12T00:24:29.324Z,4.78
2023-11-12T00:26:55.776Z,4.79
2023-11-12T00:29:22.148Z,4.81
2023-11-12T00:31:48.680Z,4.74
2023-11-12T00:34:15.185Z,4.84
2023-11-12T00:36:43.867Z,4.82
2023-11-12T00:39:10.755Z,4.80
2023-11-12T00:41:40.390Z,4.76
2023-11-12T00:44:08.724Z,4.81
2023-11-12T00:46:35.296Z,4.83
2023-11-12T00:49:03.634Z,4.86
2023-11-12T00:51:30.502Z,4.94
2023-11-12T00:53:56.840Z,4.96
2023-11-12T00:56:23.716Z,4.89
2023-11-12T00:58:50.605Z,4.91
2023-11-12T01:01:18.769Z,4.88
2023-11-12T01:03:45.636Z,4.80
2023-11-12T01:06:12.993Z,4.77
2023-11-12T01:08:40.550Z,4.74
2023-11-12T01:11:07.012Z,4.79
2023-11-12T01:13:34.591Z,4.73
2023-11-12T01:16:02.037Z,4.76
2023-11-12T01:18:29.431Z,4.74
2023-11-12T01:20:55.895Z,4.60
2023-11-12T01:23:23.329Z,4.66
2023-11-12T01:25:49.739Z,4.70
2023-11-12T01:28:16.351Z,4.62
2023-11-12T01:30:42.771Z,4.61
2023-11-12T01:33:09.226Z,4.59
2023-11-12T01:35:35.870Z,4.63
2023-11-12T01:38:02.268Z,4.77
2023-11-12T01:40:29.346Z,4.79
2023-11-12T01:42:56.033Z,4.84
2023-11-12T01:45:23.196Z,4.79
2023-11-12T01:47:50.895Z,4.78
2023-11-12T01:50:19.745Z,4.72
2023-11-12T01:52:48.304Z,4.71
2023-11-12T01:55:15.609Z,4.63
2023-11-12T01:57:44.375Z,4.63
2023-11-12T02:00:13.257Z,4.72
2023-11-12T02:02:40.522Z,4.51
2023-11-12T02:05:07.917Z,4.41
2023-11-12T02:07:36.146Z,4.51
2023-11-12T02:10:09.464Z,4.17
2023-11-12T02:12:44.862Z,4.14
2023-11-12T02:15:15.050Z,4.25
2023-11-12T02:17:45.237Z,4.27
2023-11-12T02:20:15.413Z,4.30
2023-11-12T02:22:42.829Z,4.30
2023-11-12T02:25:09.547Z,4.22
2023-11-12T02:27:36.041Z,4.36
2023-11-12T02:30:04.450Z,4.44
2023-11-12T02:32:33.382Z,4.48
2023-11-12T02:35:01.567Z,4.23
2023-11-12T02:37:27.971Z,4.19
2023-11-12T02:39:54.405Z,4.18
2023-11-12T02:42:21.628Z,4.19
2023-11-12T02:44:47.965Z,4.33
2023-11-12T02:47:14.500Z,4.25
2023-11-12T02:50:08.129Z,4.29
2023-11-12T02:52:35.197Z,4.39
2023-11-12T02:55:01.902Z,4.42
2023-11-12T02:57:28.799Z,4.34
2023-11-12T02:59:55.610Z,4.23
2023-11-12T03:02:23.401Z,4.26
2023-11-12T03:04:50.696Z,4.19
2023-11-12T03:07:19.751Z,4.15
2023-11-12T03:09:46.799Z,4.23
2023-11-12T03:12:13.290Z,4.32
2023-11-12T03:14:39.669Z,4.23
2023-11-12T03:17:06.026Z,4.29
2023-11-12T03:19:35.786Z,4.37
2023-11-12T03:22:02.274Z,4.35
2023-11-12T03:24:28.688Z,4.35
2023-11-12T03:26:55.344Z,4.15
2023-11-12T03:29:24.341Z,4.22
2023-11-12T03:31:51.929Z,4.24
2023-11-12T03:34:18.422Z,4.25
2023-11-12T03:36:45.051Z,4.34
2023-11-12T03:39:11.651Z,4.33
2023-11-12T03:41:38.897Z,4.21
2023-11-12T03:44:05.825Z,4.26
2023-11-12T03:46:32.409Z,4.37
2023-11-12T03:48:58.792Z,4.28
2023-11-12T03:51:25.523Z,4.23
2023-11-12T03:53:51.978Z,4.06
2023-11-12T03:56:19.155Z,4.12
2023-11-12T03:58:46.103Z,4.19
2023-11-12T04:01:12.537Z,4.15
2023-11-12T04:03:39.775Z,4.24
2023-11-12T04:06:06.688Z,4.21
2023-11-12T04:08:34.712Z,4.31
2023-11-12T04:11:01.326Z,4.31
2023-11-12T04:13:27.715Z,4.29
2023-11-12T04:15:54.444Z,4.33
2023-11-12T04:18:20.924Z,4.47
2023-11-12T04:20:47.355Z,4.34
2023-11-12T04:23:13.939Z,4.45
2023-11-12T04:25:40.315Z,4.42
2023-11-12T04:28:06.664Z,4.44
2023-11-12T04:30:33.856Z,4.55
2023-11-12T04:33:00.962Z,4.45
2023-11-12T04:35:27.655Z,4.37
2023-11-12T04:37:54.272Z,4.40
2023-11-12T04:40:22.124Z,4.40
2023-11-12T04:42:49.640Z,4.46
2023-11-12T04:45:19.417Z,4.55
2023-11-12T04:47:46.480Z,4.59
2023-11-12T04:50:13.614Z,4.69
2023-11-12T04:52:40.915Z,4.69
2023-11-12T04:55:08.705Z,4.68
2023-11-12T04:57:35.247Z,4.68
2023-11-12T05:00:02.235Z,4.71
2023-11-12T05:02:28.602Z,4.71
2023-11-12T05:04:55.148Z,4.69
2023-11-12T05:07:21.662Z,4.61
2023-11-12T05:09:48.228Z,4.73
2023-11-12T05:12:16.195Z,4.70
2023-11-12T05:14:42.717Z,4.68
2023-11-12T05:17:09.095Z,4.65
2023-11-12T05:19:36.249Z,4.64
2023-11-12T05:22:02.704Z,4.73
2023-11-12T05:24:29.289Z,4.82
2023-11-12T05:26:55.708Z,4.90
2023-11-12T05:29:22.263Z,4.96
2023-11-12T05:31:49.278Z,4.76
2023-11-12T05:34:15.949Z,4.83
2023-11-12T05:36:42.772Z,4.93
2023-11-12T05:39:13.865Z,4.84
2023-11-12T05:41:40.301Z,4.82
2023-11-12T05:44:08.290Z,4.90
2023-11-12T05:46:34.679Z,5.00
2023-11-12T05:49:01.250Z,4.91
2023-11-12T05:51:27.759Z,4.93
2023-11-12T05:53:54.269Z,4.89
2023-11-12T05:56:21.042Z,4.87
2023-11-12T05:58:47.876Z,4.96
2023-11-12T06:01:14.457Z,4.94
2023-11-12T06:03:41.269Z,4.85
2023-11-12T06:06:07.702Z,4.87
2023-11-12T06:08:34.061Z,4.86
2023-11-12T06:11:01.204Z,4.95
2023-11-12T06:13:27.559Z,5.06
2023-11-12T06:15:53.892Z,5.05
2023-11-12T06:18:20.273Z,5.14
2023-11-12T06:20:46.995Z,5.14
2023-11-12T06:23:13.528Z,5.16
2023-11-12T06:25:39.892Z,5.23
2023-11-12T06:28:06.313Z,5.15
2023-11-12T06:30:32.743Z,5.02
2023-11-12T06:33:00.364Z,5.06
2023-11-12T06:35:27.046Z,5.08
2023-11-12T06:37:53.731Z,5.13
2023-11-12T06:40:20.324Z,5.21
2023-11-12T06:42:46.818Z,5.28
2023-11-12T06:45:14.477Z,5.18
2023-11-12T06:47:41.680Z,5.26
2023-11-12T06:50:08.563Z,5.30
2023-11-12T06:52:35.272Z,5.25
2023-11-12T06:55:04.431Z,5.38
2023-11-12T06:57:31.263Z,5.41
2023-11-12T06:59:57.926Z,5.42
2023-11-12T07:02:24.435Z,5.41
2023-11-12T07:04:51.038Z,5.51
2023-11-12T07:07:17.553Z,5.62
2023-11-12T07:09:45.677Z,5.62
2023-11-12T07:12:12.432Z,5.66
2023-11-12T07:14:38.847Z,5.74
2023-11-12T07:17:05.372Z,5.77
2023-11-12T07:19:32.094Z,5.67
2023-11-12T07:21:59.691Z,5.71
2023-11-12T07:24:26.144Z,5.82
2023-11-12T07:26:52.496Z,5.85
2023-11-12T07:29:19.085Z,5.88
2023-11-12T07:31:46.039Z,5.95
2023-11-12T07:34:12.644Z,6.00
2023-11-12T07:36:39.282Z,6.10
2023-11-12T07:39:10.615Z,6.13
2023-11-12T07:41:38.572Z,6.17
2023-11-12T07:44:09.260Z,6.09
2023-11-12T07:46:41.027Z,6.02
2023-11-12T07:49:07.825Z,5.99
2023-11-12T07:51:35.931Z,5.99
2023-11-12T07:54:02.365Z,6.07
2023-11-12T07:56:34.313Z,6.10
2023-11-12T07:59:05.749Z,6.15
2023-11-12T08:01:32.323Z,6.15
2023-11-12T08:03:58.800Z,6.23
2023-11-12T08:06:27.521Z,6.22
2023-11-12T08:08:54.813Z,6.26
2023-11-12T08:11:21.633Z,6.23
2023-11-12T08:13:48.760Z,6.22
2023-11-12T08:16:15.279Z,6.28
2023-11-12T08:18:41.772Z,6.33
2023-11-12T08:21:08.642Z,6.37
2023-11-12T08:23:35.303Z,6.46
2023-11-12T08:26:03.418Z,6.53
2023-11-12T08:28:30.528Z,6.58
2023-11-12T08:30:56.973Z,6.53
2023-11-12T08:33:23.584Z,6.47
2023-11-12T08:35:49.993Z,6.53
2023-11-12T08:38:16.566Z,6.59
2023-11-12T08:40:44.434Z,6.65
2023-11-12T08:43:11.270Z,6.67
2023-11-12T08:45:37.907Z,6.65
2023-11-12T08:48:04.724Z,6.61
2023-11-12T08:50:31.114Z,6.56
2023-11-12T08:52:58.131Z,6.53
2023-11-12T08:55:24.525Z,6.45
2023-11-12T08:57:50.916Z,6.50
2023-11-12T09:00:19.473Z,6.49
2023-11-12T09:02:47.519Z,6.42
2023-11-12T09:05:14.315Z,6.31
2023-11-12T09:07:40.771Z,6.37
2023-11-12T09:10:07.965Z,6.40
2023-11-12T09:12:34.729Z,6.50
2023-11-12T09:15:02.117Z,6.52
2023-11-12T09:17:28.621Z,6.49
2023-11-12T09:19:54.993Z,6.47
2023-11-12T09:22:21.398Z,6.49
2023-11-12T09:25:00.709Z,6.52
2023-11-12T09:27:34.820Z,6.56
2023-11-12T09:30:01.772Z,6.49
2023-11-12T09:32:28.453Z,6.48
2023-11-12T09:34:54.927Z,6.47
2023-11-12T09:37:21.307Z,6.44
2023-11-12T09:39:47.684Z,6.51
2023-11-12T09:42:22.812Z,6.55
2023-11-12T09:44:50.281Z,6.65
2023-11-12T09:47:31.769Z,6.53
2023-11-12T09:49:58.813Z,6.45
2023-11-12T09:52:26.339Z,6.55
2023-11-12T09:54:53.517Z,6.63
2023-11-12T09:57:20.034Z,6.72
2023-11-12T09:59:46.792Z,6.67
2023-11-12T10:02:14.065Z,6.62
2023-11-12T10:04:44.389Z,6.61
2023-11-12T10:07:12.542Z,6.59
2023-11-12T10:09:40.119Z,6.65
2023-11-12T10:12:07.613Z,6.66
2023-11-12T10:14:34.456Z,6.58
2023-11-12T10:17:08.411Z,6.65
2023-11-12T10:19:38.605Z,6.76
2023-11-12T10:22:08.310Z,6.72
2023-11-12T10:24:45.358Z,6.62
2023-11-12T10:27:13.523Z,6.70
2023-11-12T10:29:42.195Z,6.73
2023-11-12T10:32:09.069Z,6.67
2023-11-12T10:34:35.568Z,6.59
2023-11-12T10:37:10.773Z,6.60
2023-11-12T10:39:48.198Z,6.51
2023-11-12T10:42:24.753Z,6.58
2023-11-12T10:44:59.495Z,6.60
2023-11-12T10:47:31.556Z,6.72
2023-11-12T10:50:00.663Z,6.83
2023-11-12T10:52:31.157Z,6.80
2023-11-12T10:55:01.031Z,6.77
2023-11-12T10:57:28.455Z,6.77
2023-11-12T10:59:56.352Z,6.83
2023-11-12T11:02:31.072Z,6.75
2023-11-12T11:04:58.218Z,6.81
2023-11-12T11:07:24.944Z,6.92
2023-11-12T11:09:52.115Z,6.97
2023-11-12T11:12:19.250Z,6.97
2023-11-12T11:14:47.468Z,6.93
2023-11-12T11:17:37.676Z,6.87
2023-11-12T11:20:13.358Z,6.76
2023-11-12T11:22:40.299Z,6.80
2023-11-12T11:25:32.349Z,7.00
2023-11-12T11:28:18.846Z,7.03
2023-11-12T11:31:20.790Z,6.94
2023-11-12T11:33:49.215Z,6.92
2023-11-12T11:36:18.921Z,6.91
2023-11-12T11:39:12.228Z,6.86
2023-11-12T11:41:54.380Z,6.73
2023-11-12T11:44:33.107Z,6.74
2023-11-12T11:47:19.302Z,6.77
2023-11-12T11:49:58.917Z,6.83
2023-11-12T11:52:27.743Z,6.88
2023-11-12T11:55:05.997Z,6.90
2023-11-12T11:57:33.006Z,6.91
2023-11-12T12:00:00.809Z,7.04
2023-11-12T12:02:27.750Z,7.01
2023-11-12T12:04:58.472Z,7.16
2023-11-12T12:07:27.743Z,7.04
2023-11-12T12:09:59.589Z,7.05
2023-11-12T12:12:27.626Z,7.08
2023-11-12T12:14:55.803Z,7.11
2023-11-12T12:17:22.574Z,6.99
2023-11-12T12:19:53.844Z,6.92
2023-11-12T12:22:29.218Z,7.03
2023-11-12T12:24:58.393Z,7.07
2023-11-12T12:27:26.011Z,7.09
2023-11-12T12:29:54.076Z,7.07
2023-11-12T12:32:21.540Z,6.87
2023-11-12T12:34:57.265Z,6.86
2023-11-12T12:37:30.395Z,6.93
2023-11-12T12:40:11.732Z,6.95
2023-11-12T12:42:38.528Z,6.88
2023-11-12T12:45:13.671Z,7.02
2023-11-12T12:47:42.919Z,7.16
2023-11-12T12:50:16.874Z,7.14
2023-11-12T12:52:47.844Z,7.12
2023-11-12T12:55:18.446Z,7.11
2023-11-12T12:57:50.962Z,7.05
2023-11-12T13:00:19.071Z,7.12
2023-11-12T13:02:48.105Z,7.20
2023-11-12T13:05:20.141Z,7.08
2023-11-12T13:07:50.697Z,7.10
2023-11-12T13:10:21.833Z,7.04
2023-11-12T13:12:53.848Z,7.07
2023-11-12T13:15:22.297Z,7.17
2023-11-12T13:17:49.795Z,7.18
2023-11-12T13:20:16.284Z,7.11
2023-11-12T13:22:42.908Z,7.10
2023-11-12T13:25:16.786Z,7.09
2023-11-12T13:27:47.143Z,7.12
2023-11-12T13:30:14.286Z,7.12
2023-11-12T13:32:41.484Z,7.07
2023-11-12T13:35:09.544Z,7.12
2023-11-12T13:37:36.059Z,7.04
2023-11-12T13:40:15.289Z,6.88
2023-11-12T13:42:43.648Z,7.06
2023-11-12T13:45:15.108Z,7.18
2023-11-12T13:47:41.740Z,7.25
2023-11-12T13:50:12.381Z,7.36
2023-11-12T13:52:44.016Z,7.37
2023-11-12T13:55:18.932Z,7.26
2023-11-12T13:57:47.000Z,7.24
2023-11-12T14:00:16.830Z,7.18
2023-11-12T14:02:43.616Z,7.14
2023-11-12T14:05:10.151Z,7.09
2023-11-12T14:07:42.210Z,7.09
2023-11-12T14:10:15.422Z,7.10
2023-11-12T14:12:44.204Z,7.13
2023-11-12T14:15:16.337Z,7.15
2023-11-12T14:17:45.141Z,7.03
2023-11-12T14:20:12.552Z,7.03
2023-11-12T14:22:41.205Z,7.06
2023-11-12T14:25:14.816Z,7.03
2023-11-12T14:27:42.132Z,6.99
2023-11-12T14:30:14.775Z,7.00
2023-11-12T14:32:41.399Z,7.01
2023-11-12T14:35:08.131Z,7.06
2023-11-12T14:37:34.722Z,7.09
2023-11-12T14:40:06.256Z,7.04
2023-11-12T14:42:33.030Z,6.94
2023-11-12T14:44:59.560Z,6.95
2023-11-12T14:47:26.276Z,6.99
2023-11-12T14:49:53.003Z,6.96
2023-11-12T14:52:19.625Z,6.85
2023-11-12T14:54:46.120Z,6.88
2023-11-12T14:57:12.756Z,6.97
2023-11-12T14:59:41.191Z,6.98
2023-11-12T15:02:09.339Z,6.96
2023-11-12T15:04:35.980Z,6.91
2023-11-12T15:07:02.714Z,6.84
2023-11-12T15:09:30.226Z,6.91
2023-11-12T15:11:56.659Z,6.76
2023-11-12T15:14:23.667Z,6.80
2023-11-12T15:16:50.409Z,6.92
2023-11-12T15:19:17.068Z,6.91
2023-11-12T15:21:43.661Z,6.83
2023-11-12T15:24:12.210Z,6.75
2023-11-12T15:26:43.175Z,6.75
2023-11-12T15:29:09.641Z,6.74
2023-11-12T15:31:36.491Z,6.75
2023-11-12T15:34:05.899Z,6.73
2023-11-12T15:36:34.370Z,6.76
2023-11-12T15:39:01.651Z,6.77
2023-11-12T15:41:28.354Z,6.77
2023-11-12T15:43:56.553Z,6.76
2023-11-12T15:46:23.355Z,6.77
2023-11-12T15:48:49.818Z,6.76
2023-11-12T15:51:18.193Z,6.57
2023-11-12T15:53:45.540Z,6.50
2023-11-12T15:56:14.506Z,6.59
2023-11-12T15:58:42.365Z,6.59
2023-11-12T16:01:09.317Z,6.62
2023-11-12T16:03:37.775Z,6.61
2023-11-12T16:06:05.778Z,6.67
2023-11-12T16:08:32.173Z,6.66
2023-11-12T16:10:58.575Z,6.61
2023-11-12T16:13:25.151Z,6.65
2023-11-12T16:15:52.003Z,6.60
2023-11-12T16:18:18.489Z,6.62
2023-11-12T16:20:45.089Z,6.58
2023-11-12T16:23:11.743Z,6.61
2023-11-12T16:25:38.112Z,6.56
2023-11-12T16:28:04.888Z,6.54
2023-11-12T16:30:31.640Z,6.44
2023-11-12T16:32:59.147Z,6.52
2023-11-12T16:35:25.954Z,6.56
2023-11-12T16:37:53.221Z,6.57
2023-11-12T16:40:20.446Z,6.60
2023-11-12T16:42:49.268Z,6.57
2023-11-12T16:45:16.698Z,6.48
2023-11-12T16:47:43.196Z,6.47
2023-11-12T16:50:10.258Z,6.50
2023-11-12T16:52:38.008Z,6.50
2023-11-12T16:55:07.559Z,6.53
2023-11-12T16:57:34.076Z,6.48
2023-11-12T17:00:00.686Z,6.52
2023-11-12T17:02:29.068Z,6.52
2023-11-12T17:04:56.155Z,6.49
2023-11-12T17:07:22.598Z,6.50
2023-11-12T17:09:49.632Z,6.48
2023-11-12T17:12:16.289Z,6.40
2023-11-12T17:14:43.224Z,6.45
2023-11-12T17:17:09.734Z,6.48
2023-11-12T17:19:36.686Z,6.47
2023-11-12T17:22:03.679Z,6.47
2023-11-12T17:24:30.134Z,6.48
2023-11-12T17:26:56.630Z,6.52
2023-11-12T17:29:22.997Z,6.55
2023-11-12T17:31:50.679Z,6.44
2023-11-12T17:34:18.053Z,6.45
2023-11-12T17:36:44.580Z,6.49
2023-11-12T17:39:14.442Z,6.40
2023-11-12T17:41:40.897Z,6.44
2023-11-12T17:44:08.649Z,6.38
2023-11-12T17:46:35.072Z,6.44
2023-11-12T17:49:02.244Z,6.46
2023-11-12T17:51:28.923Z,6.39
2023-11-12T17:53:55.434Z,6.46
2023-11-12T17:56:23.444Z,6.32
2023-11-12T17:58:50.037Z,6.30
2023-11-12T18:01:19.215Z,6.26
2023-11-12T18:03:46.844Z,6.21
2023-11-12T18:06:13.431Z,6.23
2023-11-12T18:08:39.843Z,6.20
2023-11-12T18:11:06.814Z,6.20
2023-11-12T18:13:37.442Z,6.13
2023-11-12T18:16:05.534Z,6.08
2023-11-12T18:18:32.524Z,5.99
2023-11-12T18:21:00.415Z,5.99
2023-11-12T18:23:26.810Z,6.06
2023-11-12T18:25:53.530Z,6.00
2023-11-12T18:28:21.293Z,5.97
2023-11-12T18:30:49.554Z,5.97
2023-11-12T18:33:17.201Z,6.01
2023-11-12T18:35:45.097Z,5.93
2023-11-12T18:38:12.788Z,5.94
2023-11-12T18:40:41.759Z,6.00
2023-11-12T18:43:08.324Z,5.97
2023-11-12T18:45:34.853Z,5.95
2023-11-12T18:48:09.493Z,5.98
2023-11-12T18:50:39.907Z,5.88
2023-11-12T18:53:07.694Z,5.94
2023-11-12T18:55:34.497Z,6.01
2023-11-12T18:58:00.867Z,5.94
2023-11-12T19:00:27.342Z,5.96
2023-11-12T19:02:57.124Z,5.94
2023-11-12T19:05:23.967Z,5.90
2023-11-12T19:07:50.642Z,5.84
2023-11-12T19:10:24.215Z,5.84
2023-11-12T19:12:51.187Z,5.76
2023-11-12T19:15:18.073Z,5.74
2023-11-12T19:17:45.512Z,5.75
2023-11-12T19:20:14.268Z,5.74
2023-11-12T19:22:41.527Z,5.76
2023-11-12T19:25:10.142Z,5.77
2023-11-12T19:27:37.026Z,5.69
2023-11-12T19:30:13.725Z,5.69
2023-11-12T19:32:42.127Z,5.71
2023-11-12T19:35:09.184Z,5.66
2023-11-12T19:37:38.458Z,5.65
2023-11-12T19:40:05.360Z,5.57
2023-11-12T19:42:31.788Z,5.52
2023-11-12T19:44:59.368Z,5.52
2023-11-12T19:47:27.976Z,5.34
2023-11-12T19:49:56.150Z,5.31
2023-11-12T19:52:22.627Z,5.30
2023-11-12T19:54:49.109Z,5.23
2023-11-12T19:57:16.280Z,5.25
2023-11-12T19:59:42.869Z,5.23
2023-11-12T20:02:10.753Z,5.02
2023-11-12T20:04:38.847Z,5.07
2023-11-12T20:07:05.471Z,5.07
2023-11-12T20:09:32.756Z,5.18
2023-11-12T20:12:02.069Z,5.07
2023-11-12T20:14:29.671Z,5.03
2023-11-12T20:16:59.585Z,5.05
2023-11-12T20:19:28.557Z,5.10
2023-11-12T20:21:56.422Z,5.11
2023-11-12T20:24:23.042Z,5.18
2023-11-12T20:26:51.715Z,5.18
2023-11-12T20:29:21.820Z,5.14
2023-11-12T20:31:55.098Z,5.18
2023-11-12T20:34:23.472Z,5.22
2023-11-12T20:36:51.357Z,5.17
2023-11-12T20:39:18.280Z,5.19
2023-11-12T20:41:45.815Z,5.21
2023-11-12T20:44:13.475Z,5.23
2023-11-12T20:46:47.590Z,5.20
2023-11-12T20:49:19.331Z,5.23
2023-11-12T20:51:47.010Z,5.22
2023-11-12T20:54:14.652Z,5.16
2023-11-12T20:56:41.602Z,5.19
2023-11-12T20:59:11.182Z,5.16
2023-11-12T21:01:38.261Z,5.18
2023-11-12T21:04:07.694Z,5.17
2023-11-12T21:06:37.068Z,5.24
2023-11-12T21:09:04.037Z,5.23
2023-11-12T21:11:34.111Z,5.15
2023-11-12T21:14:01.637Z,5.18
2023-11-12T21:16:28.341Z,5.15
2023-11-12T21:18:55.882Z,5.14
2023-11-12T21:21:22.930Z,5.10
2023-11-12T21:23:49.310Z,5.13
2023-11-12T21:26:15.804Z,5.21
2023-11-12T21:28:45.487Z,5.17
2023-11-12T21:31:15.070Z,5.14
2023-11-12T21:33:45.842Z,5.16
2023-11-12T21:36:12.769Z,5.17
2023-11-12T21:38:40.031Z,5.18
2023-11-12T21:41:07.609Z,5.18
2023-11-12T21:43:35.940Z,5.16
2023-11-12T21:46:03.045Z,5.17
2023-11-12T21:48:29.746Z,5.11
2023-11-12T21:50:56.286Z,5.12
2023-11-12T21:53:26.496Z,5.10
2023-11-12T21:55:53.537Z,5.09
2023-11-12T21:58:20.384Z,5.07
2023-11-12T22:00:46.836Z,5.00
2023-11-12T22:03:15.969Z,4.94
2023-11-12T22:05:44.087Z,4.96
2023-11-12T22:08:11.300Z,4.92
2023-11-12T22:10:39.138Z,4.88
2023-11-12T22:13:06.796Z,4.87
2023-11-12T22:15:33.252Z,4.88
2023-11-12T22:18:00.032Z,4.86
2023-11-12T22:20:29.071Z,4.86
2023-11-12T22:22:57.173Z,4.76
2023-11-12T22:25:26.679Z,4.75
2023-11-12T22:27:54.674Z,4.70
2023-11-12T22:30:23.051Z,4.64
2023-11-12T22:32:54.651Z,4.60
2023-11-12T22:35:21.702Z,4.53
2023-11-12T22:37:48.698Z,4.54
2023-11-12T22:40:16.180Z,4.51
2023-11-12T22:42:43.096Z,4.46
2023-11-12T22:45:10.992Z,4.40
2023-11-12T22:47:39.142Z,4.30
2023-11-12T22:50:08.290Z,4.25
2023-11-12T22:52:35.256Z,4.22
2023-11-12T22:55:04.117Z,4.24
2023-11-12T22:57:33.720Z,4.26
2023-11-12T23:00:05.864Z,4.33
2023-11-12T23:02:33.539Z,4.31
2023-11-12T23:05:00.040Z,4.22
2023-11-12T23:07:27.822Z,4.22
2023-11-12T23:09:54.231Z,4.07
2023-11-12T23:12:21.978Z,4.05
2023-11-12T23:14:52.129Z,3.99
2023-11-12T23:17:22.409Z,3.93
2023-11-12T23:19:49.057Z,3.90
2023-11-12T23:22:15.833Z,3.91
2023-11-12T23:24:42.288Z,3.94
2023-11-12T23:27:08.761Z,3.98
2023-11-12T23:29:35.909Z,4.00
2023-11-12T23:32:07.444Z,4.03
2023-11-12T23:34:36.716Z,3.93
2023-11-12T23:37:05.944Z,3.81
2023-11-12T23:39:32.472Z,3.81
2023-11-12T23:41:58.852Z,3.88
2023-11-12T23:44:25.936Z,3.92
2023-11-12T23:46:52.328Z,3.97
2023-11-12T23:49:19.024Z,3.86
2023-11-12T23:51:45.795Z,3.86
2023-11-12T23:54:12.670Z,3.79
2023-11-12T23:56:39.300Z,3.73
2023-11-12T23:59:06.140Z,3.75
